createdAt,value
2023-03-03T00:01:35.857Z,117.82
2023-03-03T00:06:42.315Z,116.30
2023-03-03T00:16:58.096Z,127.50
2023-03-03T00:22:05.157Z,120.65
2023-03-03T00:27:32.458Z,125.45
2023-03-03T00:32:52.532Z,124.68
2023-03-03T00:38:03.655Z,100.80
2023-03-03T00:43:40.258Z,108.03
2023-03-03T00:48:46.675Z,119.45
2023-03-03T00:53:53.577Z,117.10
2023-03-03T00:59:02.714Z,116.03
2023-03-03T01:04:09.805Z,104.43
2023-03-03T01:09:15.908Z,109.85
2023-03-03T01:19:29.550Z,90.50
2023-03-03T01:29:41.353Z,104.32
2023-03-03T01:34:47.924Z,97.53
2023-03-03T01:39:56.519Z,99.03
2023-03-03T01:45:22.655Z,93.05
2023-03-03T01:50:43.661Z,95.13
2023-03-03T01:55:52.557Z,93.78
2023-03-03T02:01:07.215Z,103.82
2023-03-03T02:06:19.076Z,95.07
2023-03-03T02:11:26.227Z,90.85
2023-03-03T02:16:32.774Z,84.65
2023-03-03T02:21:38.811Z,87.65
2023-03-03T02:26:48.014Z,84.38
2023-03-03T02:31:54.459Z,92.47
2023-03-03T02:37:01.375Z,97.70
2023-03-03T02:42:30.269Z,91.90
2023-03-03T02:47:37.040Z,86.55
2023-03-03T02:52:43.763Z,100.07
2023-03-03T02:57:50.476Z,92.57
2023-03-03T03:02:56.834Z,92.72
2023-03-03T03:08:03.177Z,94.63
2023-03-03T03:13:10.391Z,84.05
2023-03-03T03:18:18.328Z,91.63
2023-03-03T03:23:25.142Z,72.55
2023-03-03T03:28:31.803Z,71.95
2023-03-03T03:33:38.263Z,62.65
2023-03-03T03:38:46.668Z,53.95
2023-03-03T03:43:53.316Z,73.30
2023-03-03T03:49:00.926Z,79.07
2023-03-03T03:54:07.774Z,74.68
2023-03-03T03:59:19.162Z,80.45
2023-03-03T04:04:26.656Z,82.30
2023-03-03T04:09:33.569Z,75.50
2023-03-03T04:14:40.154Z,80.50
2023-03-03T04:19:47.061Z,79.60
2023-03-03T04:24:57.222Z,70.70
2023-03-03T04:30:09.302Z,42.30
2023-03-03T04:35:17.575Z,76.05
2023-03-03T04:40:24.269Z,77.25
2023-03-03T04:45:30.788Z,80.70
2023-03-03T04:50:37.572Z,82.03
2023-03-03T04:55:44.569Z,76.93
2023-03-03T05:00:58.252Z,72.53
2023-03-03T05:06:07.708Z,86.03
2023-03-03T05:11:14.057Z,80.75
2023-03-03T05:16:20.822Z,81.13
2023-03-03T05:21:27.564Z,70.43
2023-03-03T05:26:34.235Z,80.97
2023-03-03T05:31:40.611Z,75.93
2023-03-03T05:36:47.042Z,76.57
2023-03-03T05:41:53.693Z,77.22
2023-03-03T05:47:00.853Z,64.55
2023-03-03T05:52:07.016Z,75.63
2023-03-03T06:02:19.624Z,43.38
2023-03-03T06:07:25.694Z,78.07
2023-03-03T06:12:31.713Z,75.13
2023-03-03T06:17:38.039Z,74.43
2023-03-03T06:22:44.703Z,60.92
2023-03-03T06:27:52.458Z,32.97
2023-03-03T06:32:59.049Z,69.90
2023-03-03T06:38:05.644Z,34.80
2023-03-03T06:43:11.990Z,45.45
2023-03-03T06:48:18.477Z,62.17
2023-03-03T06:53:25.151Z,55.60
2023-03-03T06:58:31.525Z,58.17
2023-03-03T07:03:38.459Z,41.40
2023-03-03T07:08:44.825Z,35.50
2023-03-03T07:13:57.725Z,40.60
2023-03-03T07:19:05.863Z,43.53
2023-03-03T07:24:29.934Z,44.92
2023-03-03T07:29:42.257Z,36.00
2023-03-03T07:34:52.291Z,23.77
2023-03-03T07:39:58.912Z,42.38
2023-03-03T07:45:06.416Z,34.90
2023-03-03T07:50:23.269Z,56.22
2023-03-03T07:55:41.778Z,35.53
2023-03-03T08:00:49.001Z,48.63
2023-03-03T08:05:59.294Z,36.28
2023-03-03T08:11:26.599Z,32.78
2023-03-03T08:16:41.106Z,54.45
2023-03-03T08:22:01.855Z,60.20
2023-03-03T08:27:09.856Z,60.00
2023-03-03T08:32:19.115Z,38.70
2023-03-03T08:37:36.908Z,54.45
2023-03-03T08:42:55.852Z,37.90
2023-03-03T08:48:05.550Z,46.78
2023-03-03T08:53:14.748Z,53.15
2023-03-03T08:58:28.011Z,58.55
2023-03-03T09:03:41.083Z,58.70
2023-03-03T09:08:47.805Z,57.35
2023-03-03T09:13:57.276Z,55.22
2023-03-03T09:19:23.698Z,53.90
2023-03-03T09:29:41.181Z,54.20
2023-03-03T09:34:47.431Z,48.65
2023-03-03T09:39:57.318Z,50.95
2023-03-03T09:45:30.694Z,46.70
2023-03-03T09:50:40.643Z,59.72
2023-03-03T09:56:06.881Z,58.10
2023-03-03T10:01:55.416Z,58.17
2023-03-03T10:07:35.430Z,48.80
2023-03-03T10:13:25.374Z,56.80
2023-03-03T10:18:40.065Z,50.60
2023-03-03T10:23:59.175Z,53.08
2023-03-03T10:29:35.786Z,62.03
2023-03-03T10:35:01.548Z,57.47
2023-03-03T10:40:24.910Z,54.53
2023-03-03T10:45:48.634Z,55.97
2023-03-03T10:51:13.081Z,57.78
2023-03-03T10:56:32.132Z,56.67
2023-03-03T11:01:47.002Z,54.30
2023-03-03T11:07:20.162Z,57.33
2023-03-03T11:13:02.226Z,54.92
2023-03-03T11:18:11.715Z,55.80
2023-03-03T11:23:38.889Z,54.92
2023-03-03T11:34:41.538Z,57.13
2023-03-03T11:39:48.089Z,54.45
2023-03-03T11:45:17.112Z,54.63
2023-03-03T11:50:38.175Z,57.72
2023-03-03T12:02:53.642Z,56.58
2023-03-03T12:08:26.090Z,54.15
2023-03-03T12:21:00.669Z,57.63
2023-03-03T12:33:34.060Z,58.72
2023-03-03T12:39:17.733Z,53.83
2023-03-03T12:45:00.452Z,56.25
2023-03-03T12:51:11.054Z,58.13
2023-03-03T12:56:36.692Z,57.08
2023-03-03T13:02:31.295Z,57.37
2023-03-03T13:09:09.847Z,58.20
2023-03-03T13:20:50.527Z,58.10
2023-03-03T13:26:44.751Z,57.20
2023-03-03T13:32:08.126Z,58.15
2023-03-03T13:44:26.592Z,57.55
2023-03-03T13:50:20.631Z,58.65
2023-03-03T14:14:10.426Z,60.78
2023-03-03T14:19:31.677Z,59.20
2023-03-03T14:25:20.183Z,61.97
2023-03-03T14:30:37.772Z,62.10
2023-03-03T14:36:01.836Z,65.45
2023-03-03T14:41:25.249Z,62.85
2023-03-03T14:46:45.017Z,57.53
2023-03-03T14:51:59.404Z,58.55
2023-03-03T15:02:59.256Z,57.65
2023-03-03T15:08:12.000Z,54.42
2023-03-03T15:13:25.663Z,64.03
2023-03-03T15:33:23.688Z,56.08
2023-03-03T15:39:11.446Z,55.72
2023-03-03T15:44:43.519Z,53.47
2023-03-03T15:49:56.051Z,51.53
2023-03-03T15:55:11.972Z,53.78
2023-03-03T16:06:57.287Z,57.30
2023-03-03T16:12:16.015Z,54.72
2023-03-03T16:18:15.994Z,59.13
2023-03-03T16:23:49.684Z,61.50
2023-03-03T16:29:11.597Z,59.30
2023-03-03T16:34:33.998Z,62.97
2023-03-03T16:39:49.776Z,57.95
2023-03-03T16:45:26.073Z,60.80
2023-03-03T16:51:11.800Z,62.75
2023-03-03T16:56:39.063Z,61.47
2023-03-03T17:02:50.403Z,61.45
2023-03-03T17:08:41.037Z,60.85
2023-03-03T17:14:05.740Z,59.72
2023-03-03T17:19:54.343Z,60.45
2023-03-03T17:25:42.566Z,61.13
2023-03-03T17:31:44.893Z,61.40
2023-03-03T17:43:21.597Z,65.63
2023-03-03T17:49:45.931Z,62.40
2023-03-03T17:55:19.947Z,62.63
2023-03-03T18:00:56.781Z,61.85
2023-03-03T18:06:28.596Z,62.80
2023-03-03T18:11:44.302Z,58.40
2023-03-03T18:17:28.772Z,73.97
2023-03-03T18:22:49.337Z,64.70
2023-03-03T18:28:06.718Z,64.10
2023-03-03T18:33:15.738Z,57.45
2023-03-03T18:38:23.033Z,57.97
2023-03-03T18:43:55.069Z,56.35
2023-03-03T18:49:26.149Z,52.90
2023-03-03T18:54:42.048Z,52.97
2023-03-03T19:00:05.530Z,52.40
2023-03-03T19:06:11.012Z,55.40
2023-03-03T19:11:35.253Z,54.97
2023-03-03T19:16:42.061Z,62.92
2023-03-03T19:22:27.702Z,59.50
2023-03-03T19:27:51.098Z,59.47
2023-03-03T19:33:26.164Z,67.22
2023-03-03T19:38:45.774Z,62.72
2023-03-03T19:44:04.996Z,64.65
2023-03-03T19:49:35.675Z,67.10
2023-03-03T19:55:15.067Z,65.15
2023-03-03T20:00:29.834Z,55.60
2023-03-03T20:05:44.422Z,61.78
2023-03-03T20:11:18.192Z,69.78
2023-03-03T20:16:43.254Z,87.60
2023-03-03T20:22:39.086Z,79.00
2023-03-03T20:28:12.806Z,67.65
2023-03-03T20:33:52.172Z,83.18
2023-03-03T20:39:35.770Z,63.70
2023-03-03T20:44:42.009Z,56.50
2023-03-03T20:55:13.651Z,78.53
2023-03-03T21:00:35.667Z,71.90
2023-03-03T21:06:02.945Z,71.57
2023-03-03T21:11:12.764Z,70.65
2023-03-03T21:16:25.366Z,49.00
2023-03-03T21:21:35.175Z,65.72
2023-03-03T21:27:20.745Z,55.25
2023-03-03T21:33:00.869Z,84.45
2023-03-03T21:38:06.840Z,46.35
2023-03-03T21:43:42.627Z,72.65
2023-03-03T21:48:49.188Z,57.42
2023-03-03T21:53:56.525Z,54.33
2023-03-03T21:59:02.652Z,64.72
2023-03-03T22:04:08.722Z,52.80
2023-03-03T22:09:15.326Z,61.70
2023-03-03T22:14:22.107Z,52.20
2023-03-03T22:19:28.235Z,53.95
2023-03-03T22:24:35.975Z,51.85
2023-03-03T22:29:42.497Z,48.88
2023-03-03T22:34:49.589Z,52.92
2023-03-03T22:39:55.996Z,51.58
2023-03-03T22:45:02.932Z,43.00
2023-03-03T22:50:10.261Z,48.92
2023-03-03T22:55:16.407Z,48.92
2023-03-03T23:05:29.788Z,43.65
2023-03-03T23:10:36.528Z,32.80
2023-03-03T23:16:22.144Z,34.17
2023-03-03T23:21:28.932Z,36.28
2023-03-03T23:26:34.992Z,39.13
2023-03-03T23:31:41.323Z,38.83
2023-03-03T23:41:53.802Z,26.93
2023-03-03T23:52:08.138Z,38.17
2023-03-03T23:57:14.610Z,32.58
